Time;durP1;ratioP1;P1;durP2;ratioP2;P2;SDS_P1;SDS_P2;PMS_P1;PMS_P2;Temp;Humidity;BMP_temperature;BMP_pressure;BME280_temperature;BME280_humidity;BME280_pressure;Samples;Min_cycle;Max_cycle;Signal;HPM_P1;HPM_P2
2021/01/23 00:03:30;;;;;;;9.63;7.23;;;;;2.30;99154.00;;;;10439021;28;20205;-75
2021/01/23 00:08:31;;;;;;;12.67;7.43;;;;;2.40;99149.00;;;;10414341;28;20678;-75
2021/01/23 00:13:32;;;;;;;12.97;8.13;;;;;2.40;99144.00;;;;10406301;28;20289;-75
2021/01/23 00:18:33;;;;;;;14.50;8.67;;;;;2.40;99133.00;;;;10446403;28;20530;-75
2021/01/23 00:23:35;;;;;;;17.93;8.70;;;;;2.40;99123.00;;;;10381380;28;20195;-75
2021/01/23 00:28:37;;;;;;;15.23;8.50;;;;;2.40;99114.00;;;;10423129;28;20206;-75
2021/01/23 00:33:38;;;;;;;13.47;8.17;;;;;2.50;99119.00;;;;10422809;28;20248;-75
2021/01/23 00:38:40;;;;;;;12.43;7.10;;;;;2.60;99122.00;;;;10438346;28;20194;-75
2021/01/23 00:43:41;;;;;;;12.80;6.53;;;;;2.70;99129.00;;;;10412069;28;20250;-75
2021/01/23 00:48:42;;;;;;;10.83;7.43;;;;;2.80;99126.00;;;;10426720;28;20225;-75
2021/01/23 00:53:45;;;;;;;9.23;7.07;;;;;2.80;99127.00;;;;10399075;28;20229;-75
2021/01/23 00:58:46;;;;;;;9.63;6.80;;;;;2.90;99134.00;;;;10422902;28;20199;-75
2021/01/23 01:03:48;;;;;;;10.13;6.30;;;;;2.90;99123.00;;;;10437793;28;20241;-75
2021/01/23 01:08:50;;;;;;;8.50;5.57;;;;;2.90;99127.00;;;;10454403;28;20220;-75
2021/01/23 01:13:51;;;;;;;8.83;5.70;;;;;2.90;99120.00;;;;10437715;28;20224;-75
2021/01/23 01:18:52;;;;;;;10.27;6.67;;;;;2.90;99118.00;;;;10421037;28;20190;-75
2021/01/23 01:23:54;;;;;;;9.13;4.87;;;;;2.90;99130.00;;;;10454605;28;20243;-75
2021/01/23 01:28:55;;;;;;;11.97;6.10;;;;;3.00;99127.00;;;;10420891;28;20644;-75
2021/01/23 01:33:56;;;;;;;9.37;6.33;;;;;3.10;99132.00;;;;10425363;28;20198;-75
2021/01/23 01:38:58;;;;;;;6.60;5.53;;;;;3.30;99131.00;;;;10396332;28;20191;-75
2021/01/23 01:43:59;;;;;;;9.07;5.23;;;;;3.30;99130.00;;;;10396042;28;20265;-75
2021/01/23 01:49:04;;;;;;;9.80;5.67;;;;;3.30;99138.00;;;;10400565;28;20290;-75
2021/01/23 01:54:06;;;;;;;9.40;5.07;;;;;3.40;99131.00;;;;10420835;28;20217;-75
2021/01/23 01:59:08;;;;;;;8.43;5.93;;;;;3.40;99138.00;;;;10444779;28;20244;-75
2021/01/23 02:04:31;;;;;;;10.70;5.17;;;;;3.50;99133.00;;;;10411972;28;20257;-76
2021/01/23 02:09:41;;;;;;;12.43;5.33;;;;;3.70;99123.00;;;;10423456;28;20638;-76
2021/01/23 02:14:59;;;;;;;11.07;5.47;;;;;3.70;99111.00;;;;10416674;28;20223;-76
2021/01/23 02:20:27;;;;;;;11.77;4.93;;;;;3.70;99120.00;;;;10386341;28;20198;-76
2021/01/23 02:25:36;;;;;;;12.17;5.40;;;;;3.80;99114.00;;;;10402566;28;20238;-77
2021/01/23 02:30:53;;;;;;;8.90;4.77;;;;;3.80;99130.00;;;;10410169;28;20560;-77
2021/01/23 02:35:55;;;;;;;8.77;5.10;;;;;3.80;99123.00;;;;10460183;28;20232;-77
2021/01/23 02:40:56;;;;;;;9.17;4.60;;;;;3.80;99117.00;;;;10441434;28;20245;-77
2021/01/23 02:45:58;;;;;;;10.70;5.23;;;;;3.90;99116.00;;;;10430157;28;20304;-77
2021/01/23 02:51:02;;;;;;;7.43;5.00;;;;;4.00;99107.00;;;;10442327;28;20201;-77
2021/01/23 02:56:14;;;;;;;5.73;4.43;;;;;3.90;99097.00;;;;10425952;28;20217;-77
2021/01/23 03:01:16;;;;;;;8.13;4.13;;;;;3.80;99092.00;;;;10399779;28;20910;-76
2021/01/23 03:06:19;;;;;;;11.40;4.87;;;;;3.60;99075.00;;;;10401832;28;20225;-77
2021/01/23 03:11:21;;;;;;;7.20;4.83;;;;;3.60;99078.00;;;;10400760;28;20294;-76
2021/01/23 03:16:22;;;;;;;6.30;4.37;;;;;3.50;99092.00;;;;10409322;28;20195;-77
2021/01/23 03:21:23;;;;;;;6.47;3.93;;;;;3.40;99083.00;;;;10416892;28;20265;-77
2021/01/23 03:26:24;;;;;;;11.47;4.60;;;;;3.30;99086.00;;;;10416924;28;20214;-77
2021/01/23 03:31:26;;;;;;;8.23;5.13;;;;;3.30;99082.00;;;;10432576;28;20208;-76
2021/01/23 03:36:27;;;;;;;8.40;4.63;;;;;3.50;99083.00;;;;10383189;28;20197;-77
2021/01/23 03:41:29;;;;;;;6.67;4.97;;;;;3.50;99085.00;;;;10433486;28;20190;-76
2021/01/23 03:46:31;;;;;;;9.10;4.37;;;;;3.40;99076.00;;;;10439869;28;20664;-77
2021/01/23 03:51:33;;;;;;;7.27;4.87;;;;;3.40;99077.00;;;;10440676;28;20213;-77
2021/01/23 03:56:34;;;;;;;10.47;5.30;;;;;3.30;99066.00;;;;10440468;28;20186;-77
2021/01/23 04:01:35;;;;;;;8.17;5.00;;;;;3.20;99066.00;;;;10422994;28;20202;-77
2021/01/23 04:06:37;;;;;;;7.90;5.80;;;;;3.10;99066.00;;;;10456344;28;20245;-77
2021/01/23 04:11:38;;;;;;;9.10;4.80;;;;;3.10;99056.00;;;;10422862;28;20186;-76
2021/01/23 04:16:39;;;;;;;12.17;6.23;;;;;3.10;99062.00;;;;10439569;28;20252;-77
2021/01/23 04:21:42;;;;;;;8.13;5.10;;;;;3.00;99054.00;;;;10455203;28;20654;-77
2021/01/23 04:26:43;;;;;;;10.00;4.57;;;;;3.00;99070.00;;;;10455503;28;20673;-76
2021/01/23 04:31:45;;;;;;;9.77;5.07;;;;;3.00;99065.00;;;;10455998;28;20204;-76
2021/01/23 04:36:46;;;;;;;9.47;5.83;;;;;3.00;99059.00;;;;10422202;28;20264;-77
2021/01/23 04:41:48;;;;;;;9.77;5.97;;;;;3.00;99053.00;;;;10407008;28;20253;-76
2021/01/23 04:46:49;;;;;;;9.43;5.57;;;;;2.90;99062.00;;;;10397739;28;20211;-77
2021/01/23 04:51:50;;;;;;;10.50;5.57;;;;;2.90;99054.00;;;;10414796;28;20189;-76
2021/01/23 04:56:54;;;;;;;16.43;5.60;;;;;2.90;99059.00;;;;10383196;28;20708;-76
2021/01/23 05:02:18;;;;;;;10.03;6.00;;;;;3.00;99065.00;;;;10428887;28;20229;-77
2021/01/23 05:07:27;;;;;;;10.23;5.87;;;;;3.00;99062.00;;;;10437963;28;20681;-76
2021/01/23 05:12:34;;;;;;;12.90;6.07;;;;;3.10;99055.00;;;;10421039;28;20190;-76
2021/01/23 05:17:59;;;;;;;10.90;6.03;;;;;3.10;99064.00;;;;10363874;28;20198;-77
2021/01/23 05:23:14;;;;;;;13.00;5.93;;;;;3.00;99056.00;;;;10425325;28;20269;-77
2021/01/23 05:28:28;;;;;;;12.53;5.17;;;;;2.90;99049.00;;;;10460817;28;20218;-77
2021/01/23 05:33:30;;;;;;;9.67;5.83;;;;;2.90;99039.00;;;;10388633;28;20331;-76
2021/01/23 05:38:33;;;;;;;11.23;5.70;;;;;2.80;99050.00;;;;10389224;28;20244;-77
2021/01/23 05:43:39;;;;;;;9.53;5.63;;;;;2.80;99052.00;;;;10444733;28;20265;-77
2021/01/23 05:48:43;;;;;;;9.27;5.53;;;;;2.80;99056.00;;;;10461106;28;20218;-77
2021/01/23 05:53:46;;;;;;;9.17;5.93;;;;;2.70;99066.00;;;;10434939;28;20223;-77
2021/01/23 05:58:47;;;;;;;10.17;5.73;;;;;2.50;99058.00;;;;10404206;28;20879;-76
2021/01/23 06:03:54;;;;;;;12.10;6.33;;;;;2.50;99072.00;;;;10393039;28;20202;-77
2021/01/23 06:08:55;;;;;;;12.50;5.70;;;;;2.40;99068.00;;;;10439817;28;20677;-76
2021/01/23 06:13:57;;;;;;;10.83;5.50;;;;;2.40;99069.00;;;;10398331;28;20194;-77
2021/01/23 06:19:04;;;;;;;10.80;5.73;;;;;2.30;99067.00;;;;10443808;28;20208;-77
2021/01/23 06:24:05;;;;;;;9.27;6.07;;;;;2.30;99064.00;;;;10426699;28;20935;-77
2021/01/23 06:29:07;;;;;;;13.57;6.40;;;;;2.40;99071.00;;;;10434764;28;20199;-76
2021/01/23 06:34:25;;;;;;;10.50;5.60;;;;;2.40;99080.00;;;;10426449;28;20186;-77
2021/01/23 06:39:27;;;;;;;11.63;5.90;;;;;2.40;99073.00;;;;10442926;28;20194;-76
2021/01/23 06:44:32;;;;;;;15.07;5.50;;;;;2.40;99072.00;;;;10426075;28;20218;-77
2021/01/23 06:49:40;;;;;;;11.53;5.70;;;;;2.40;99082.00;;;;10421364;28;20195;-76
2021/01/23 06:54:45;;;;;;;8.57;5.57;;;;;2.30;99091.00;;;;10441424;28;20198;-77
2021/01/23 06:59:48;;;;;;;12.10;4.77;;;;;2.20;99088.00;;;;10402219;28;20203;-77
2021/01/23 07:04:50;;;;;;;7.43;4.87;;;;;2.20;99083.00;;;;10440241;28;20252;-76
2021/01/23 07:09:52;;;;;;;7.93;5.03;;;;;2.10;99087.00;;;;10442130;28;20245;-77
2021/01/23 07:14:54;;;;;;;10.60;5.77;;;;;2.10;99102.00;;;;10441801;28;20208;-77
2021/01/23 07:19:55;;;;;;;10.57;5.77;;;;;2.10;99101.00;;;;10442809;28;20219;-77
2021/01/23 07:24:57;;;;;;;13.03;5.63;;;;;2.10;99105.00;;;;10399877;28;20293;-77
2021/01/23 07:29:58;;;;;;;9.93;6.20;;;;;2.00;99104.00;;;;10431186;28;20670;-76
2021/01/23 07:34:59;;;;;;;10.10;5.90;;;;;2.00;99115.00;;;;10424378;28;20202;-77
2021/01/23 07:40:07;;;;;;;15.50;6.13;;;;;2.10;99108.00;;;;10415925;28;20198;-76
2021/01/23 07:45:11;;;;;;;9.83;6.43;;;;;2.10;99108.00;;;;10439839;28;20214;-76
2021/01/23 07:50:13;;;;;;;11.50;6.60;;;;;2.20;99108.00;;;;10431753;28;20198;-76
2021/01/23 07:55:15;;;;;;;9.73;6.17;;;;;2.50;99099.00;;;;10405721;28;20206;-76
2021/01/23 08:00:21;;;;;;;14.33;6.90;;;;;2.70;99098.00;;;;10398286;28;20726;-76
2021/01/23 08:05:54;;;;;;;13.33;6.87;;;;;3.00;99090.00;;;;10418419;28;20221;-76
2021/01/23 08:10:56;;;;;;;10.90;6.33;;;;;3.20;99084.00;;;;10406555;28;20688;-75
2021/01/23 08:16:15;;;;;;;8.43;6.00;;;;;3.40;99092.00;;;;10440190;28;20590;-75
2021/01/23 08:21:21;;;;;;;16.97;7.27;;;;;3.60;99092.00;;;;10452480;28;20285;-76
2021/01/23 08:26:38;;;;;;;13.57;7.20;;;;;3.70;99078.00;;;;10409972;28;20239;-76
2021/01/23 08:31:42;;;;;;;14.50;6.83;;;;;4.00;99092.00;;;;10413657;28;20198;-76
2021/01/23 08:36:44;;;;;;;13.80;7.17;;;;;4.50;99085.00;;;;10420776;28;20190;-76
2021/01/23 08:41:46;;;;;;;10.83;6.50;;;;;4.90;99072.00;;;;10420000;28;20217;-76
2021/01/23 08:46:47;;;;;;;10.13;6.13;;;;;5.30;99075.00;;;;10410617;28;20559;-75
2021/01/23 08:51:51;;;;;;;8.17;5.87;;;;;5.50;99068.00;;;;10441545;28;20190;-75
2021/01/23 08:56:52;;;;;;;9.03;6.40;;;;;5.80;99060.00;;;;10449219;28;20187;-75
2021/01/23 09:01:54;;;;;;;9.13;5.53;;;;;6.20;99052.00;;;;10423979;28;20673;-75
2021/01/23 09:06:56;;;;;;;9.53;5.20;;;;;6.40;99059.00;;;;10437337;28;20210;-75
2021/01/23 09:11:57;;;;;;;10.57;5.13;;;;;6.30;99060.00;;;;10420991;28;20257;-75
2021/01/23 09:16:58;;;;;;;7.83;4.97;;;;;6.00;99047.00;;;;10430908;28;20201;-75
2021/01/23 09:22:03;;;;;;;9.83;5.00;;;;;6.00;99044.00;;;;10388243;28;20187;-75
2021/01/23 09:27:04;;;;;;;8.37;5.10;;;;;6.10;99032.00;;;;10433243;28;20662;-74
2021/01/23 09:32:06;;;;;;;9.80;4.67;;;;;6.40;99033.00;;;;10404815;28;20191;-75
2021/01/23 09:37:08;;;;;;;18.50;5.37;;;;;6.60;99014.00;;;;10429484;28;20209;-75
2021/01/23 09:42:09;;;;;;;8.67;4.47;;;;;6.90;99016.00;;;;10404313;28;20249;-75
2021/01/23 09:47:13;;;;;;;9.90;4.77;;;;;6.90;99018.00;;;;10422720;28;21065;-75
2021/01/23 09:52:15;;;;;;;7.30;4.13;;;;;7.00;99018.00;;;;10438317;28;20186;-75
2021/01/23 09:57:16;;;;;;;11.73;4.50;;;;;7.20;99011.00;;;;10433251;28;20221;-75
2021/01/23 10:02:17;;;;;;;7.77;4.20;;;;;7.40;99009.00;;;;10435948;28;20202;-75
2021/01/23 10:07:19;;;;;;;8.03;4.17;;;;;7.70;99006.00;;;;10419757;28;20202;-75
2021/01/23 10:12:20;;;;;;;7.47;4.37;;;;;7.80;99008.00;;;;10460273;28;20186;-75
2021/01/23 10:17:22;;;;;;;16.87;4.87;;;;;7.80;99006.00;;;;10440624;28;20194;-75
2021/01/23 10:22:23;;;;;;;8.37;3.53;;;;;8.00;99000.00;;;;10437411;28;20205;-75
2021/01/23 10:27:25;;;;;;;7.00;3.70;;;;;8.00;99001.00;;;;10438748;28;20293;-75
2021/01/23 10:32:26;;;;;;;10.77;3.80;;;;;7.70;99005.00;;;;10456935;28;20194;-75
2021/01/23 10:37:28;;;;;;;9.93;4.07;;;;;7.60;99008.00;;;;10427494;28;20248;-76
2021/01/23 10:42:30;;;;;;;4.20;3.23;;;;;7.80;98993.00;;;;10437542;28;20695;-76
2021/01/23 10:47:31;;;;;;;7.80;3.93;;;;;8.10;98991.00;;;;10415057;28;20210;-76
2021/01/23 10:52:33;;;;;;;6.67;3.70;;;;;7.90;98980.00;;;;10420066;28;20281;-76
2021/01/23 10:57:35;;;;;;;7.03;3.53;;;;;7.90;98975.00;;;;10418039;28;20221;-76
2021/01/23 11:02:39;;;;;;;9.67;3.37;;;;;8.40;98969.00;;;;10459083;28;20308;-76
2021/01/23 11:07:41;;;;;;;7.00;3.60;;;;;8.40;98967.00;;;;10426081;28;20230;-76
2021/01/23 11:12:42;;;;;;;8.60;3.77;;;;;8.50;98967.00;;;;10434344;28;20209;-76
2021/01/23 11:17:43;;;;;;;8.60;3.53;;;;;8.50;98960.00;;;;10464430;28;20205;-76
2021/01/23 11:22:46;;;;;;;7.17;3.00;;;;;8.50;98967.00;;;;10450874;28;20193;-76
2021/01/23 11:27:47;;;;;;;4.90;3.13;;;;;8.70;98959.00;;;;10457407;28;20194;-76
2021/01/23 11:32:49;;;;;;;7.60;3.67;;;;;8.90;98951.00;;;;10434300;28;20257;-76
2021/01/23 11:37:51;;;;;;;10.00;3.77;;;;;9.20;98948.00;;;;10438164;28;20202;-76
2021/01/23 11:42:52;;;;;;;7.93;3.20;;;;;9.20;98958.00;;;;10448288;28;20245;-76
2021/01/23 11:47:55;;;;;;;5.70;3.40;;;;;8.90;98950.00;;;;10417143;28;20211;-76
2021/01/23 11:52:56;;;;;;;8.57;4.13;;;;;8.30;98948.00;;;;10419043;28;20706;-76
2021/01/23 11:58:01;;;;;;;13.87;3.10;;;;;7.70;98943.00;;;;10421478;28;20858;-76
2021/01/23 12:03:06;;;;;;;9.40;3.63;;;;;7.30;98940.00;;;;10446436;28;20248;-76
2021/01/23 12:08:07;;;;;;;14.47;7.53;;;;;6.90;98934.00;;;;10426892;28;20217;-76
2021/01/23 12:13:12;;;;;;;6.80;3.10;;;;;7.00;98918.00;;;;10414576;28;20201;-77
2021/01/23 12:18:14;;;;;;;7.93;2.83;;;;;7.20;98921.00;;;;10405635;28;20203;-77
2021/01/23 12:23:17;;;;;;;8.47;2.70;;;;;7.00;98908.00;;;;10397309;28;20222;-77
2021/01/23 12:28:18;;;;;;;10.63;5.23;;;;;6.90;98903.00;;;;10413268;28;20218;-75
2021/01/23 12:33:19;;;;;;;9.97;3.43;;;;;6.80;98901.00;;;;10436107;28;20210;-75
2021/01/23 12:38:23;;;;;;;11.03;3.17;;;;;6.80;98894.00;;;;10430254;28;20220;-75
2021/01/23 12:43:25;;;;;;;6.13;3.27;;;;;6.70;98884.00;;;;10416003;28;20706;-76
2021/01/23 12:48:26;;;;;;;6.47;2.83;;;;;6.70;98880.00;;;;10449477;28;20236;-76
2021/01/23 12:53:27;;;;;;;6.40;2.43;;;;;6.80;98874.00;;;;10436523;28;20711;-74
2021/01/23 12:58:29;;;;;;;5.43;3.43;;;;;7.00;98868.00;;;;10420232;28;20600;-74
2021/01/23 13:03:30;;;;;;;8.83;3.20;;;;;7.10;98868.00;;;;10434410;28;20212;-75
2021/01/23 13:08:31;;;;;;;6.00;2.60;;;;;7.30;98864.00;;;;10448109;28;21607;-75
2021/01/23 13:13:35;;;;;;;9.47;4.17;;;;;7.30;98855.00;;;;10450124;28;20193;-76
2021/01/23 13:18:39;;;;;;;7.17;2.90;;;;;7.40;98853.00;;;;10397817;28;20634;-75
2021/01/23 13:23:43;;;;;;;7.77;2.90;;;;;7.30;98853.00;;;;10435715;28;20285;-75
2021/01/23 13:28:45;;;;;;;11.87;3.70;;;;;7.20;98843.00;;;;10418005;28;20240;-75
2021/01/23 13:33:50;;;;;;;4.30;2.53;;;;;7.30;98848.00;;;;10402337;28;20205;-76
2021/01/23 13:38:52;;;;;;;9.23;3.70;;;;;7.30;98841.00;;;;10415155;28;20205;-76
2021/01/23 13:43:53;;;;;;;11.33;3.10;;;;;7.30;98834.00;;;;10452274;28;20538;-76
2021/01/23 13:48:55;;;;;;;7.23;2.57;;;;;7.40;98828.00;;;;10436225;28;20261;-76
2021/01/23 13:53:57;;;;;;;7.53;3.20;;;;;7.50;98840.00;;;;10394794;28;20546;-76
2021/01/23 13:58:59;;;;;;;8.57;2.63;;;;;7.50;98820.00;;;;10416515;28;20720;-76
2021/01/23 14:04:07;;;;;;;11.37;2.83;;;;;7.40;98811.00;;;;10416954;28;20226;-76
2021/01/23 14:09:08;;;;;;;6.47;3.13;;;;;7.30;98813.00;;;;10386707;28;20194;-76
2021/01/23 14:14:10;;;;;;;8.53;2.93;;;;;7.20;98807.00;;;;10410712;28;20230;-76
2021/01/23 14:19:13;;;;;;;6.17;3.67;;;;;7.10;98811.00;;;;10432361;28;20183;-76
2021/01/23 14:24:15;;;;;;;5.60;2.70;;;;;7.10;98810.00;;;;10420746;28;20582;-75
2021/01/23 14:29:16;;;;;;;6.90;2.80;;;;;7.00;98812.00;;;;10436079;28;20604;-75
2021/01/23 14:34:18;;;;;;;6.17;3.10;;;;;7.00;98817.00;;;;10458993;28;20214;-75
2021/01/23 14:39:19;;;;;;;10.30;4.90;;;;;7.00;98807.00;;;;10418484;28;20195;-76
2021/01/23 14:44:20;;;;;;;9.90;2.80;;;;;6.90;98809.00;;;;10452348;28;20229;-77
2021/01/23 14:49:28;;;;;;;8.07;2.90;;;;;6.80;98812.00;;;;10447155;28;20206;-76
2021/01/23 14:54:31;;;;;;;6.00;3.00;;;;;6.70;98806.00;;;;10416445;28;20199;-76
2021/01/23 14:59:32;;;;;;;5.37;2.80;;;;;6.60;98799.00;;;;10417393;28;20825;-76
2021/01/23 15:04:33;;;;;;;11.10;2.93;;;;;6.50;98788.00;;;;10435743;28;20230;-76
2021/01/23 15:09:35;;;;;;;7.67;3.30;;;;;6.40;98788.00;;;;10437694;28;20237;-76
2021/01/23 15:14:38;;;;;;;3.50;2.30;;;;;6.30;98786.00;;;;10434370;28;20249;-76
2021/01/23 15:19:39;;;;;;;6.77;2.57;;;;;6.20;98786.00;;;;10402071;28;20191;-76
2021/01/23 15:24:42;;;;;;;5.77;3.10;;;;;6.10;98797.00;;;;10405756;28;20900;-76
2021/01/23 15:29:43;;;;;;;9.20;3.67;;;;;6.00;98799.00;;;;10371776;28;20210;-76
2021/01/23 15:34:44;;;;;;;10.27;3.83;;;;;5.80;98799.00;;;;10457142;28;20202;-76
2021/01/23 15:39:46;;;;;;;11.70;5.50;;;;;5.70;98800.00;;;;10457854;28;20182;-76
2021/01/23 15:44:47;;;;;;;9.33;4.20;;;;;5.60;98801.00;;;;10434063;28;20245;-76
2021/01/23 15:49:48;;;;;;;7.80;3.37;;;;;5.50;98807.00;;;;10395254;28;20217;-76
2021/01/23 15:54:50;;;;;;;6.27;3.07;;;;;5.40;98809.00;;;;10416193;28;20195;-76
2021/01/23 15:59:51;;;;;;;8.13;3.00;;;;;5.40;98811.00;;;;10398958;28;20642;-76
2021/01/23 16:04:52;;;;;;;8.87;4.63;;;;;5.30;98811.00;;;;10411380;28;20677;-76
2021/01/23 16:09:54;;;;;;;5.93;4.43;;;;;5.20;98807.00;;;;10456487;28;20281;-76
2021/01/23 16:14:56;;;;;;;9.87;4.63;;;;;5.20;98808.00;;;;10420652;28;20204;-76
2021/01/23 16:19:57;;;;;;;13.37;7.90;;;;;5.20;98807.00;;;;10423300;28;20206;-75
2021/01/23 16:24:59;;;;;;;16.40;7.43;;;;;5.20;98814.00;;;;10382796;28;20290;-75
2021/01/23 16:30:05;;;;;;;12.83;7.03;;;;;5.10;98799.00;;;;10397663;28;20294;-76
2021/01/23 16:35:09;;;;;;;20.50;9.50;;;;;5.00;98805.00;;;;10415500;28;20542;-76
2021/01/23 16:40:11;;;;;;;13.63;8.03;;;;;4.90;98806.00;;;;10414305;28;20574;-76
2021/01/23 16:45:17;;;;;;;10.30;7.07;;;;;4.70;98801.00;;;;10449809;28;20218;-76
2021/01/23 16:50:19;;;;;;;12.83;8.87;;;;;4.60;98811.00;;;;10438502;28;20233;-76
2021/01/23 16:55:20;;;;;;;14.63;9.47;;;;;4.50;98808.00;;;;10454193;28;20190;-76
2021/01/23 17:00:22;;;;;;;12.67;8.43;;;;;4.50;98815.00;;;;10421253;28;20244;-76
2021/01/23 17:05:24;;;;;;;13.97;8.07;;;;;4.40;98811.00;;;;10438042;28;20191;-76
2021/01/23 17:10:27;;;;;;;11.80;6.93;;;;;4.30;98816.00;;;;10421557;28;20197;-76
2021/01/23 17:15:28;;;;;;;10.53;7.00;;;;;4.30;98819.00;;;;10453976;28;20244;-75
2021/01/23 17:20:29;;;;;;;11.10;7.93;;;;;4.30;98822.00;;;;10428861;28;20248;-76
2021/01/23 17:25:31;;;;;;;12.87;7.43;;;;;4.20;98809.00;;;;10374750;28;20620;-76
2021/01/23 17:30:32;;;;;;;13.33;10.57;;;;;4.20;98804.00;;;;10416292;28;20218;-76
2021/01/23 17:35:35;;;;;;;11.40;9.17;;;;;4.10;98800.00;;;;10443592;28;20225;-76
2021/01/23 17:40:36;;;;;;;14.40;9.33;;;;;4.10;98799.00;;;;10420728;28;20206;-76
2021/01/23 17:45:37;;;;;;;14.00;9.37;;;;;4.00;98804.00;;;;10387547;28;20252;-76
2021/01/23 17:50:39;;;;;;;12.00;8.07;;;;;3.90;98808.00;;;;10447709;28;20190;-76
2021/01/23 17:55:41;;;;;;;20.50;12.50;;;;;3.90;98810.00;;;;10444044;28;20232;-76
2021/01/23 18:00:42;;;;;;;8.97;6.80;;;;;3.80;98786.00;;;;10427239;28;20230;-77
2021/01/23 18:05:44;;;;;;;7.97;5.27;;;;;3.60;98809.00;;;;10410105;28;20198;-76
2021/01/23 18:10:45;;;;;;;9.70;7.80;;;;;3.50;98817.00;;;;10438554;28;20649;-77
2021/01/23 18:15:46;;;;;;;9.90;7.13;;;;;3.40;98812.00;;;;10386972;28;20230;-76
2021/01/23 18:20:48;;;;;;;9.17;6.97;;;;;3.20;98833.00;;;;10401675;28;20225;-76
2021/01/23 18:25:51;;;;;;;9.80;7.90;;;;;3.00;98836.00;;;;10401516;28;20191;-77
2021/01/23 18:30:52;;;;;;;10.80;8.40;;;;;2.90;98841.00;;;;10384892;28;20225;-76
2021/01/23 18:35:53;;;;;;;7.17;5.80;;;;;2.60;98836.00;;;;10440943;28;20194;-77
2021/01/23 18:40:55;;;;;;;8.67;6.50;;;;;2.30;98857.00;;;;10425317;28;20245;-76
2021/01/23 18:45:56;;;;;;;8.63;6.50;;;;;2.10;98862.00;;;;10451795;28;20250;-76
2021/01/23 18:50:58;;;;;;;7.83;5.37;;;;;2.00;98865.00;;;;10406397;28;20599;-76
2021/01/23 18:55:59;;;;;;;9.30;6.57;;;;;1.90;98856.00;;;;10391231;28;20218;-76
2021/01/23 19:01:03;;;;;;;4.23;3.47;;;;;1.80;98863.00;;;;10457016;28;20194;-76
2021/01/23 19:06:05;;;;;;;5.57;4.37;;;;;1.70;98874.00;;;;10457814;28;21164;-76
2021/01/23 19:11:06;;;;;;;6.23;4.90;;;;;1.60;98875.00;;;;10458067;28;20194;-75
2021/01/23 19:16:07;;;;;;;7.23;4.33;;;;;1.50;98887.00;;;;10456938;28;20202;-75
2021/01/23 19:21:09;;;;;;;4.47;3.73;;;;;1.30;98886.00;;;;10458517;28;20281;-75
2021/01/23 19:26:10;;;;;;;6.03;3.87;;;;;1.20;98899.00;;;;10457257;28;20221;-75
2021/01/23 19:31:11;;;;;;;6.17;4.60;;;;;1.10;98910.00;;;;10416621;28;20335;-75
2021/01/23 19:36:13;;;;;;;5.37;4.30;;;;;1.00;98911.00;;;;10398920;28;20195;-75
2021/01/23 19:41:14;;;;;;;5.70;4.00;;;;;0.90;98918.00;;;;10385961;28;20198;-75
2021/01/23 19:46:16;;;;;;;5.10;4.20;;;;;0.80;98912.00;;;;10457230;28;20249;-75
2021/01/23 19:51:18;;;;;;;4.57;3.17;;;;;0.80;98922.00;;;;10441680;28;20202;-75
2021/01/23 19:56:19;;;;;;;4.13;3.70;;;;;0.70;98918.00;;;;10398956;28;20219;-75
2021/01/23 20:01:21;;;;;;;4.07;3.33;;;;;0.70;98924.00;;;;10398630;28;20230;-75
2021/01/23 20:06:29;;;;;;;4.67;4.10;;;;;0.60;98926.00;;;;10575301;27;21125;-74
2021/01/23 20:11:30;;;;;;;4.00;3.60;;;;;0.60;98919.00;;;;10556843;28;20216;-74
2021/01/23 20:16:31;;;;;;;5.90;4.20;;;;;0.70;98925.00;;;;10556946;28;20188;-74
2021/01/23 20:21:34;;;;;;;7.70;5.63;;;;;0.70;98921.00;;;;10539272;28;20224;-74
2021/01/23 20:26:35;;;;;;;9.53;6.47;;;;;0.70;98925.00;;;;10573253;28;20215;-74
2021/01/23 20:31:36;;;;;;;7.90;4.80;;;;;0.70;98925.00;;;;10556552;28;20614;-74
2021/01/23 20:36:38;;;;;;;8.10;4.80;;;;;0.70;98935.00;;;;10573176;28;20189;-74
2021/01/23 20:41:44;;;;;;;6.57;4.70;;;;;0.80;98931.00;;;;10573177;28;20300;-74
2021/01/23 20:46:45;;;;;;;5.27;4.43;;;;;0.80;98938.00;;;;10537314;28;20212;-74
2021/01/23 20:51:47;;;;;;;4.80;3.90;;;;;0.80;98936.00;;;;10513278;28;20199;-74
2021/01/23 20:56:49;;;;;;;5.57;4.50;;;;;0.90;98935.00;;;;10524167;28;20201;-74
2021/01/23 21:01:50;;;;;;;11.00;6.83;;;;;0.90;98926.00;;;;10553528;28;20218;-74
2021/01/23 21:06:52;;;;;;;12.20;7.13;;;;;0.90;98934.00;;;;10555906;28;20261;-74
2021/01/23 21:11:53;;;;;;;12.63;8.90;;;;;1.00;98940.00;;;;10538183;28;20189;-74
2021/01/23 21:16:54;;;;;;;14.63;9.43;;;;;1.00;98936.00;;;;10549232;28;20204;-74
2021/01/23 21:21:56;;;;;;;14.87;9.17;;;;;1.00;98945.00;;;;10543273;28;20205;-74
2021/01/23 21:26:57;;;;;;;17.77;11.10;;;;;1.00;98942.00;;;;10526867;28;20192;-73
2021/01/23 21:31:59;;;;;;;17.40;10.40;;;;;1.10;98945.00;;;;10543762;28;20793;-73
2021/01/23 21:37:02;;;;;;;19.77;12.30;;;;;1.00;98946.00;;;;10544588;28;20543;-73
2021/01/23 21:42:04;;;;;;;18.17;10.80;;;;;1.10;98954.00;;;;10543637;28;20367;-73
2021/01/23 21:47:05;;;;;;;17.20;11.53;;;;;1.10;98957.00;;;;10542302;28;20216;-73
2021/01/23 21:52:06;;;;;;;17.13;10.33;;;;;1.10;98963.00;;;;10542220;28;20185;-73
2021/01/23 21:57:08;;;;;;;19.47;12.03;;;;;1.10;98966.00;;;;10542033;28;20197;-73
2021/01/23 22:02:09;;;;;;;19.07;12.57;;;;;1.10;98965.00;;;;10524528;28;20580;-73
2021/01/23 22:07:11;;;;;;;31.60;15.47;;;;;1.10;98967.00;;;;10522544;28;20217;-73
2021/01/23 22:12:12;;;;;;;25.07;15.10;;;;;1.20;98987.00;;;;10482620;28;20186;-73
2021/01/23 22:17:13;;;;;;;30.53;16.33;;;;;1.20;98977.00;;;;10500166;28;20289;-74
2021/01/23 22:22:14;;;;;;;21.67;12.43;;;;;1.20;98985.00;;;;10491919;28;20210;-74
2021/01/23 22:27:16;;;;;;;18.67;11.57;;;;;1.20;98991.00;;;;10499321;28;20258;-74
2021/01/23 22:32:17;;;;;;;22.50;11.80;;;;;1.30;98992.00;;;;10524585;28;20188;-74
2021/01/23 22:37:19;;;;;;;20.00;11.57;;;;;1.30;98991.00;;;;10507001;28;20279;-74
2021/01/23 22:42:20;;;;;;;29.50;17.07;;;;;1.30;99003.00;;;;10506341;28;20248;-74
2021/01/23 22:47:22;;;;;;;29.30;17.33;;;;;1.30;98989.00;;;;10482877;28;20254;-74
2021/01/23 22:52:23;;;;;;;26.07;15.40;;;;;1.30;98991.00;;;;10481600;28;20198;-74
2021/01/23 22:57:24;;;;;;;21.53;13.50;;;;;1.30;98997.00;;;;10498671;28;20193;-75
2021/01/23 23:02:26;;;;;;;24.07;12.23;;;;;1.30;98996.00;;;;10497389;28;20233;-75
2021/01/23 23:07:27;;;;;;;17.27;9.73;;;;;1.40;98997.00;;;;10497261;28;20250;-75
2021/01/23 23:12:28;;;;;;;10.03;6.70;;;;;1.40;98997.00;;;;10514573;28;20220;-75
2021/01/23 23:17:29;;;;;;;6.47;4.40;;;;;1.40;98995.00;;;;10521491;28;20648;-75
2021/01/23 23:22:31;;;;;;;8.13;5.00;;;;;1.40;99011.00;;;;10500714;28;20644;-75
2021/01/23 23:27:33;;;;;;;5.53;4.23;;;;;1.40;99023.00;;;;10498500;28;20506;-75
2021/01/23 23:32:35;;;;;;;6.53;4.40;;;;;1.40;99031.00;;;;10462926;28;20186;-74
2021/01/23 23:37:36;;;;;;;7.43;5.00;;;;;1.40;99027.00;;;;10482340;28;20211;-75
2021/01/23 23:42:38;;;;;;;9.50;5.50;;;;;1.40;99034.00;;;;10537992;28;20300;-75
2021/01/23 23:47:40;;;;;;;12.43;6.07;;;;;1.40;99042.00;;;;10504113;28;20223;-75
2021/01/23 23:52:42;;;;;;;10.80;5.73;;;;;1.40;99034.00;;;;10539303;28;20204;-74
2021/01/23 23:57:43;;;;;;;9.20;5.70;;;;;1.40;99037.00;;;;10521122;28;20192;-75
